NQA weather

Millington-Memphis Airport
Millington, Tennessee, United States

Public forecast

Using degrees Fahrenheit for public forecast. Weather courtesy of forecast.io.

Current aviation weather report (METAR) for Millington-Memphis Airport

Retrieved 2019/10/16 22:50 UTC (18 minutes ago):

KNQA 162250Z 34006KT 10SM CLR 15/06 A3006

Closest aviation forecast (TAF) to Millington-Memphis Airport

Closest forecast is Memphis International Airport, 19.6 nm (36.3 km) SSW. Retrieved 2019/10/16 18:24 UTC (5 hours ago):

TAF KMEM 161721Z 1618/1724 36011KT P6SM FEW250 FM170200 34004KT P6SM SKC FM171400 05004KT P6SM SKC FM171800 36003KT P6SM SKC